sensor_id;sensor_type;location;lat;lon;timestamp;P1;durP1;ratioP1;P2;durP2;ratioP2
74162;SDS011;62515;52.758;5.076;2022-10-31T00:00:48;12.48;;;7.50;;
74162;SDS011;62515;52.758;5.076;2022-10-31T00:03:15;10.90;;;6.63;;
74162;SDS011;62515;52.758;5.076;2022-10-31T00:05:43;11.95;;;6.47;;
74162;SDS011;62515;52.758;5.076;2022-10-31T00:08:12;9.15;;;6.13;;
74162;SDS011;62515;52.758;5.076;2022-10-31T00:10:39;8.98;;;6.45;;
74162;SDS011;62515;52.758;5.076;2022-10-31T00:13:06;13.38;;;7.30;;
74162;SDS011;62515;52.758;5.076;2022-10-31T00:15:33;13.55;;;5.90;;
74162;SDS011;62515;52.758;5.076;2022-10-31T00:18:02;7.18;;;5.50;;
74162;SDS011;62515;52.758;5.076;2022-10-31T00:20:30;9.05;;;6.10;;
74162;SDS011;62515;52.758;5.076;2022-10-31T00:22:57;11.23;;;5.43;;
74162;SDS011;62515;52.758;5.076;2022-10-31T00:25:25;10.25;;;5.88;;
74162;SDS011;62515;52.758;5.076;2022-10-31T00:27:53;12.98;;;5.90;;
74162;SDS011;62515;52.758;5.076;2022-10-31T00:30:20;7.18;;;5.43;;
74162;SDS011;62515;52.758;5.076;2022-10-31T00:32:47;11.55;;;5.72;;
74162;SDS011;62515;52.758;5.076;2022-10-31T00:35:15;7.85;;;5.03;;
74162;SDS011;62515;52.758;5.076;2022-10-31T00:40:11;9.55;;;5.25;;
74162;SDS011;62515;52.758;5.076;2022-10-31T00:42:38;14.25;;;6.25;;
74162;SDS011;62515;52.758;5.076;2022-10-31T00:45:06;8.60;;;6.07;;
74162;SDS011;62515;52.758;5.076;2022-10-31T00:47:33;10.25;;;6.00;;
74162;SDS011;62515;52.758;5.076;2022-10-31T00:50:00;10.10;;;5.63;;
74162;SDS011;62515;52.758;5.076;2022-10-31T00:52:29;8.27;;;5.20;;
74162;SDS011;62515;52.758;5.076;2022-10-31T00:54:56;8.02;;;4.90;;
74162;SDS011;62515;52.758;5.076;2022-10-31T00:57:23;6.28;;;5.05;;
74162;SDS011;62515;52.758;5.076;2022-10-31T00:59:50;6.88;;;5.07;;
74162;SDS011;62515;52.758;5.076;2022-10-31T01:02:17;8.48;;;5.80;;
74162;SDS011;62515;52.758;5.076;2022-10-31T01:04:44;9.25;;;5.93;;
74162;SDS011;62515;52.758;5.076;2022-10-31T01:07:12;9.65;;;5.60;;
74162;SDS011;62515;52.758;5.076;2022-10-31T01:09:41;8.68;;;6.10;;
74162;SDS011;62515;52.758;5.076;2022-10-31T01:12:08;6.80;;;5.35;;
74162;SDS011;62515;52.758;5.076;2022-10-31T01:14:38;9.68;;;6.80;;
74162;SDS011;62515;52.758;5.076;2022-10-31T01:17:05;7.47;;;5.20;;
74162;SDS011;62515;52.758;5.076;2022-10-31T01:19:32;9.45;;;5.82;;
74162;SDS011;62515;52.758;5.076;2022-10-31T01:21:58;7.68;;;5.22;;
74162;SDS011;62515;52.758;5.076;2022-10-31T01:24:28;8.07;;;5.70;;
74162;SDS011;62515;52.758;5.076;2022-10-31T01:26:56;11.30;;;6.28;;
74162;SDS011;62515;52.758;5.076;2022-10-31T01:29:23;8.27;;;5.70;;
74162;SDS011;62515;52.758;5.076;2022-10-31T01:31:50;7.25;;;5.47;;
74162;SDS011;62515;52.758;5.076;2022-10-31T01:34:17;8.20;;;5.50;;
74162;SDS011;62515;52.758;5.076;2022-10-31T01:36:44;6.60;;;5.53;;
74162;SDS011;62515;52.758;5.076;2022-10-31T01:39:13;7.50;;;5.07;;
74162;SDS011;62515;52.758;5.076;2022-10-31T01:41:41;7.68;;;5.13;;
74162;SDS011;62515;52.758;5.076;2022-10-31T01:47:15;9.50;;;5.85;;
74162;SDS011;62515;52.758;5.076;2022-10-31T01:49:46;10.32;;;6.28;;
74162;SDS011;62515;52.758;5.076;2022-10-31T01:52:16;7.50;;;5.90;;
74162;SDS011;62515;52.758;5.076;2022-10-31T01:54:50;9.27;;;7.15;;
74162;SDS011;62515;52.758;5.076;2022-10-31T01:57:19;9.05;;;5.60;;
74162;SDS011;62515;52.758;5.076;2022-10-31T01:59:52;9.02;;;6.47;;
74162;SDS011;62515;52.758;5.076;2022-10-31T02:02:23;9.77;;;6.63;;
74162;SDS011;62515;52.758;5.076;2022-10-31T02:04:52;7.88;;;6.07;;
74162;SDS011;62515;52.758;5.076;2022-10-31T02:07:23;8.52;;;6.15;;
74162;SDS011;62515;52.758;5.076;2022-10-31T02:09:57;7.07;;;5.97;;
74162;SDS011;62515;52.758;5.076;2022-10-31T02:12:26;6.85;;;6.03;;
74162;SDS011;62515;52.758;5.076;2022-10-31T02:14:57;7.72;;;6.03;;
74162;SDS011;62515;52.758;5.076;2022-10-31T02:17:28;6.53;;;5.80;;
74162;SDS011;62515;52.758;5.076;2022-10-31T02:19:57;7.35;;;5.90;;
74162;SDS011;62515;52.758;5.076;2022-10-31T02:22:35;8.27;;;6.30;;
74162;SDS011;62515;52.758;5.076;2022-10-31T02:25:19;11.90;;;5.82;;
74162;SDS011;62515;52.758;5.076;2022-10-31T02:28:02;8.02;;;6.65;;
74162;SDS011;62515;52.758;5.076;2022-10-31T02:30:56;7.53;;;6.38;;
74162;SDS011;62515;52.758;5.076;2022-10-31T02:33:30;8.32;;;7.20;;
74162;SDS011;62515;52.758;5.076;2022-10-31T02:36:08;9.02;;;6.90;;
74162;SDS011;62515;52.758;5.076;2022-10-31T02:38:42;8.63;;;7.18;;
74162;SDS011;62515;52.758;5.076;2022-10-31T02:41:31;8.75;;;7.18;;
74162;SDS011;62515;52.758;5.076;2022-10-31T02:44:11;9.75;;;8.35;;
74162;SDS011;62515;52.758;5.076;2022-10-31T02:46:47;11.27;;;7.90;;
74162;SDS011;62515;52.758;5.076;2022-10-31T02:49:18;9.27;;;7.97;;
74162;SDS011;62515;52.758;5.076;2022-10-31T02:51:51;10.98;;;8.43;;
74162;SDS011;62515;52.758;5.076;2022-10-31T02:54:19;14.60;;;8.95;;
74162;SDS011;62515;52.758;5.076;2022-10-31T02:56:52;11.30;;;8.20;;
74162;SDS011;62515;52.758;5.076;2022-10-31T02:59:23;12.52;;;8.32;;
74162;SDS011;62515;52.758;5.076;2022-10-31T03:01:59;10.75;;;8.75;;
74162;SDS011;62515;52.758;5.076;2022-10-31T03:07:26;12.55;;;9.02;;
74162;SDS011;62515;52.758;5.076;2022-10-31T03:10:03;13.77;;;8.32;;
74162;SDS011;62515;52.758;5.076;2022-10-31T03:12:39;13.30;;;8.75;;
74162;SDS011;62515;52.758;5.076;2022-10-31T03:15:17;12.50;;;8.07;;
74162;SDS011;62515;52.758;5.076;2022-10-31T03:17:52;9.43;;;7.75;;
74162;SDS011;62515;52.758;5.076;2022-10-31T03:20:24;13.32;;;8.48;;
74162;SDS011;62515;52.758;5.076;2022-10-31T03:22:56;12.35;;;8.65;;
74162;SDS011;62515;52.758;5.076;2022-10-31T03:25:26;14.30;;;8.77;;
74162;SDS011;62515;52.758;5.076;2022-10-31T03:30:23;10.40;;;7.15;;
74162;SDS011;62515;52.758;5.076;2022-10-31T03:32:56;14.07;;;8.07;;
74162;SDS011;62515;52.758;5.076;2022-10-31T03:35:29;10.07;;;7.80;;
74162;SDS011;62515;52.758;5.076;2022-10-31T03:38:01;10.98;;;9.02;;
74162;SDS011;62515;52.758;5.076;2022-10-31T03:40:33;15.32;;;7.90;;
74162;SDS011;62515;52.758;5.076;2022-10-31T03:43:05;11.40;;;8.40;;
74162;SDS011;62515;52.758;5.076;2022-10-31T03:45:39;11.98;;;8.10;;
74162;SDS011;62515;52.758;5.076;2022-10-31T03:48:12;10.63;;;8.07;;
74162;SDS011;62515;52.758;5.076;2022-10-31T03:50:40;8.23;;;6.55;;
74162;SDS011;62515;52.758;5.076;2022-10-31T03:53:16;9.52;;;8.00;;
74162;SDS011;62515;52.758;5.076;2022-10-31T03:55:49;9.55;;;7.78;;
74162;SDS011;62515;52.758;5.076;2022-10-31T03:58:21;10.95;;;8.05;;
74162;SDS011;62515;52.758;5.076;2022-10-31T04:00:54;11.27;;;8.00;;
74162;SDS011;62515;52.758;5.076;2022-10-31T04:03:26;10.80;;;7.72;;
74162;SDS011;62515;52.758;5.076;2022-10-31T04:05:57;9.57;;;8.55;;
74162;SDS011;62515;52.758;5.076;2022-10-31T04:08:29;9.23;;;7.60;;
74162;SDS011;62515;52.758;5.076;2022-10-31T04:10:59;11.95;;;7.50;;
74162;SDS011;62515;52.758;5.076;2022-10-31T04:13:31;11.93;;;8.93;;
74162;SDS011;62515;52.758;5.076;2022-10-31T04:16:06;11.25;;;7.78;;
74162;SDS011;62515;52.758;5.076;2022-10-31T04:18:43;9.80;;;7.45;;
74162;SDS011;62515;52.758;5.076;2022-10-31T04:21:09;9.25;;;7.43;;
74162;SDS011;62515;52.758;5.076;2022-10-31T04:23:36;10.43;;;7.57;;
74162;SDS011;62515;52.758;5.076;2022-10-31T04:26:13;12.50;;;8.05;;
74162;SDS011;62515;52.758;5.076;2022-10-31T04:28:42;11.30;;;7.55;;
74162;SDS011;62515;52.758;5.076;2022-10-31T04:31:11;10.10;;;8.30;;
74162;SDS011;62515;52.758;5.076;2022-10-31T04:33:39;12.38;;;7.78;;
74162;SDS011;62515;52.758;5.076;2022-10-31T04:36:07;11.98;;;8.65;;
74162;SDS011;62515;52.758;5.076;2022-10-31T04:38:36;13.18;;;10.65;;
74162;SDS011;62515;52.758;5.076;2022-10-31T04:41:11;15.43;;;11.63;;
74162;SDS011;62515;52.758;5.076;2022-10-31T04:43:51;17.73;;;11.90;;
74162;SDS011;62515;52.758;5.076;2022-10-31T04:46:18;18.02;;;12.05;;
74162;SDS011;62515;52.758;5.076;2022-10-31T04:48:46;24.35;;;13.38;;
74162;SDS011;62515;52.758;5.076;2022-10-31T04:51:14;20.05;;;13.40;;
74162;SDS011;62515;52.758;5.076;2022-10-31T04:53:41;18.20;;;12.05;;
74162;SDS011;62515;52.758;5.076;2022-10-31T04:56:30;19.63;;;11.38;;
74162;SDS011;62515;52.758;5.076;2022-10-31T04:59:00;19.17;;;12.25;;
74162;SDS011;62515;52.758;5.076;2022-10-31T05:01:34;13.20;;;9.98;;
74162;SDS011;62515;52.758;5.076;2022-10-31T05:04:02;13.85;;;9.65;;
74162;SDS011;62515;52.758;5.076;2022-10-31T05:06:32;15.20;;;11.30;;
74162;SDS011;62515;52.758;5.076;2022-10-31T05:08:59;17.42;;;11.25;;
74162;SDS011;62515;52.758;5.076;2022-10-31T05:11:27;18.90;;;13.32;;
74162;SDS011;62515;52.758;5.076;2022-10-31T05:14:00;19.90;;;13.45;;
74162;SDS011;62515;52.758;5.076;2022-10-31T05:16:56;19.38;;;13.77;;
74162;SDS011;62515;52.758;5.076;2022-10-31T05:19:41;19.88;;;14.85;;
74162;SDS011;62515;52.758;5.076;2022-10-31T05:22:42;22.15;;;13.68;;
74162;SDS011;62515;52.758;5.076;2022-10-31T05:25:10;21.85;;;15.23;;
74162;SDS011;62515;52.758;5.076;2022-10-31T05:27:38;17.48;;;13.15;;
74162;SDS011;62515;52.758;5.076;2022-10-31T05:30:06;19.95;;;13.70;;
74162;SDS011;62515;52.758;5.076;2022-10-31T05:32:36;16.42;;;13.00;;
74162;SDS011;62515;52.758;5.076;2022-10-31T05:35:23;17.65;;;12.45;;
74162;SDS011;62515;52.758;5.076;2022-10-31T05:38:26;20.05;;;14.07;;
74162;SDS011;62515;52.758;5.076;2022-10-31T05:40:55;21.65;;;15.02;;
74162;SDS011;62515;52.758;5.076;2022-10-31T05:43:30;26.95;;;15.90;;
74162;SDS011;62515;52.758;5.076;2022-10-31T05:45:57;24.25;;;15.32;;
74162;SDS011;62515;52.758;5.076;2022-10-31T05:48:42;25.92;;;14.93;;
74162;SDS011;62515;52.758;5.076;2022-10-31T05:51:42;19.90;;;13.98;;
74162;SDS011;62515;52.758;5.076;2022-10-31T05:54:10;22.08;;;14.23;;
74162;SDS011;62515;52.758;5.076;2022-10-31T05:56:43;22.63;;;15.73;;
74162;SDS011;62515;52.758;5.076;2022-10-31T05:59:09;17.75;;;13.15;;
74162;SDS011;62515;52.758;5.076;2022-10-31T06:01:38;20.50;;;12.52;;
74162;SDS011;62515;52.758;5.076;2022-10-31T06:04:13;18.63;;;12.63;;
74162;SDS011;62515;52.758;5.076;2022-10-31T06:06:41;18.40;;;13.15;;
74162;SDS011;62515;52.758;5.076;2022-10-31T06:09:09;20.48;;;13.38;;
74162;SDS011;62515;52.758;5.076;2022-10-31T06:11:36;23.90;;;14.50;;
74162;SDS011;62515;52.758;5.076;2022-10-31T06:14:03;28.60;;;16.00;;
74162;SDS011;62515;52.758;5.076;2022-10-31T06:16:51;26.80;;;15.75;;
74162;SDS011;62515;52.758;5.076;2022-10-31T06:22:10;24.98;;;14.82;;
74162;SDS011;62515;52.758;5.076;2022-10-31T06:24:44;28.58;;;16.02;;
74162;SDS011;62515;52.758;5.076;2022-10-31T06:27:26;30.90;;;15.10;;
74162;SDS011;62515;52.758;5.076;2022-10-31T06:30:01;28.70;;;16.05;;
74162;SDS011;62515;52.758;5.076;2022-10-31T06:32:30;22.42;;;15.93;;
74162;SDS011;62515;52.758;5.076;2022-10-31T06:34:57;24.98;;;16.42;;
74162;SDS011;62515;52.758;5.076;2022-10-31T06:37:27;23.83;;;13.98;;
74162;SDS011;62515;52.758;5.076;2022-10-31T06:40:03;19.48;;;12.98;;
74162;SDS011;62515;52.758;5.076;2022-10-31T06:42:39;23.58;;;14.27;;
74162;SDS011;62515;52.758;5.076;2022-10-31T06:45:08;25.27;;;15.55;;
74162;SDS011;62515;52.758;5.076;2022-10-31T06:47:55;27.00;;;14.82;;
74162;SDS011;62515;52.758;5.076;2022-10-31T06:51:02;28.73;;;15.52;;
74162;SDS011;62515;52.758;5.076;2022-10-31T06:53:30;28.98;;;16.55;;
74162;SDS011;62515;52.758;5.076;2022-10-31T06:55:59;30.38;;;16.33;;
74162;SDS011;62515;52.758;5.076;2022-10-31T06:58:29;24.70;;;15.73;;
74162;SDS011;62515;52.758;5.076;2022-10-31T07:01:05;28.08;;;16.63;;
74162;SDS011;62515;52.758;5.076;2022-10-31T07:03:47;27.15;;;14.65;;
74162;SDS011;62515;52.758;5.076;2022-10-31T07:06:14;27.80;;;15.32;;
74162;SDS011;62515;52.758;5.076;2022-10-31T07:08:41;23.58;;;14.43;;
74162;SDS011;62515;52.758;5.076;2022-10-31T07:11:14;25.58;;;15.32;;
74162;SDS011;62515;52.758;5.076;2022-10-31T07:13:42;28.23;;;16.23;;
74162;SDS011;62515;52.758;5.076;2022-10-31T07:16:09;35.67;;;17.58;;
74162;SDS011;62515;52.758;5.076;2022-10-31T07:18:58;34.72;;;17.23;;
74162;SDS011;62515;52.758;5.076;2022-10-31T07:21:40;41.90;;;19.30;;
74162;SDS011;62515;52.758;5.076;2022-10-31T07:24:27;49.08;;;19.42;;
74162;SDS011;62515;52.758;5.076;2022-10-31T07:27:18;45.80;;;19.85;;
74162;SDS011;62515;52.758;5.076;2022-10-31T07:30:10;44.33;;;20.60;;
74162;SDS011;62515;52.758;5.076;2022-10-31T07:32:57;45.05;;;20.13;;
74162;SDS011;62515;52.758;5.076;2022-10-31T07:36:00;36.13;;;18.42;;
74162;SDS011;62515;52.758;5.076;2022-10-31T07:38:43;41.10;;;19.85;;
74162;SDS011;62515;52.758;5.076;2022-10-31T07:41:22;37.85;;;18.40;;
74162;SDS011;62515;52.758;5.076;2022-10-31T07:43:51;43.17;;;22.20;;
74162;SDS011;62515;52.758;5.076;2022-10-31T07:46:38;50.85;;;22.50;;
74162;SDS011;62515;52.758;5.076;2022-10-31T07:49:34;48.42;;;22.02;;
74162;SDS011;62515;52.758;5.076;2022-10-31T07:52:20;47.80;;;23.40;;
74162;SDS011;62515;52.758;5.076;2022-10-31T07:54:59;58.47;;;24.42;;
74162;SDS011;62515;52.758;5.076;2022-10-31T07:57:27;62.38;;;25.55;;
74162;SDS011;62515;52.758;5.076;2022-10-31T08:00:02;64.65;;;24.45;;
74162;SDS011;62515;52.758;5.076;2022-10-31T08:02:40;62.72;;;25.30;;
74162;SDS011;62515;52.758;5.076;2022-10-31T08:05:26;64.18;;;26.67;;
74162;SDS011;62515;52.758;5.076;2022-10-31T08:08:28;60.03;;;25.50;;
74162;SDS011;62515;52.758;5.076;2022-10-31T08:11:02;55.85;;;25.75;;
74162;SDS011;62515;52.758;5.076;2022-10-31T08:13:29;49.67;;;24.30;;
74162;SDS011;62515;52.758;5.076;2022-10-31T08:19:05;52.20;;;26.00;;
74162;SDS011;62515;52.758;5.076;2022-10-31T08:21:36;53.35;;;26.02;;
74162;SDS011;62515;52.758;5.076;2022-10-31T08:24:05;58.13;;;28.50;;
74162;SDS011;62515;52.758;5.076;2022-10-31T08:26:46;53.97;;;27.88;;
74162;SDS011;62515;52.758;5.076;2022-10-31T08:29:37;47.28;;;25.13;;
74162;SDS011;62515;52.758;5.076;2022-10-31T08:32:09;40.63;;;23.17;;
74162;SDS011;62515;52.758;5.076;2022-10-31T08:34:54;39.83;;;22.73;;
74162;SDS011;62515;52.758;5.076;2022-10-31T08:37:56;36.47;;;22.00;;
74162;SDS011;62515;52.758;5.076;2022-10-31T08:40:26;38.05;;;22.35;;
74162;SDS011;62515;52.758;5.076;2022-10-31T08:42:57;39.67;;;23.27;;
74162;SDS011;62515;52.758;5.076;2022-10-31T08:45:25;36.83;;;23.08;;
74162;SDS011;62515;52.758;5.076;2022-10-31T08:47:53;32.88;;;20.50;;
74162;SDS011;62515;52.758;5.076;2022-10-31T08:50:24;33.17;;;18.75;;
74162;SDS011;62515;52.758;5.076;2022-10-31T08:52:51;33.42;;;20.45;;
74162;SDS011;62515;52.758;5.076;2022-10-31T08:55:32;30.35;;;18.52;;
74162;SDS011;62515;52.758;5.076;2022-10-31T08:58:20;29.85;;;18.30;;
74162;SDS011;62515;52.758;5.076;2022-10-31T09:00:52;28.98;;;17.98;;
74162;SDS011;62515;52.758;5.076;2022-10-31T09:03:26;21.17;;;14.90;;
74162;SDS011;62515;52.758;5.076;2022-10-31T09:05:54;24.80;;;15.50;;
74162;SDS011;62515;52.758;5.076;2022-10-31T09:08:22;27.73;;;15.43;;
74162;SDS011;62515;52.758;5.076;2022-10-31T09:10:50;24.45;;;16.35;;
74162;SDS011;62515;52.758;5.076;2022-10-31T09:13:30;29.38;;;14.57;;
74162;SDS011;62515;52.758;5.076;2022-10-31T09:16:17;26.33;;;16.15;;
74162;SDS011;62515;52.758;5.076;2022-10-31T09:18:45;21.77;;;14.10;;
74162;SDS011;62515;52.758;5.076;2022-10-31T09:21:15;20.58;;;13.93;;
74162;SDS011;62515;52.758;5.076;2022-10-31T09:23:42;19.35;;;13.98;;
74162;SDS011;62515;52.758;5.076;2022-10-31T09:26:09;20.33;;;13.43;;
74162;SDS011;62515;52.758;5.076;2022-10-31T09:28:39;15.25;;;10.90;;
74162;SDS011;62515;52.758;5.076;2022-10-31T09:31:09;18.40;;;11.23;;
74162;SDS011;62515;52.758;5.076;2022-10-31T09:33:54;15.57;;;11.38;;
74162;SDS011;62515;52.758;5.076;2022-10-31T09:36:41;18.48;;;11.70;;
74162;SDS011;62515;52.758;5.076;2022-10-31T09:39:17;17.60;;;12.38;;
74162;SDS011;62515;52.758;5.076;2022-10-31T09:41:59;17.52;;;10.95;;
74162;SDS011;62515;52.758;5.076;2022-10-31T09:44:37;18.92;;;11.82;;
74162;SDS011;62515;52.758;5.076;2022-10-31T09:47:22;16.20;;;10.80;;
74162;SDS011;62515;52.758;5.076;2022-10-31T09:50:20;15.05;;;10.05;;
74162;SDS011;62515;52.758;5.076;2022-10-31T09:52:52;18.70;;;10.30;;
74162;SDS011;62515;52.758;5.076;2022-10-31T09:55:25;14.52;;;9.35;;
74162;SDS011;62515;52.758;5.076;2022-10-31T09:57:58;19.33;;;10.82;;
74162;SDS011;62515;52.758;5.076;2022-10-31T10:00:26;14.50;;;10.07;;
74162;SDS011;62515;52.758;5.076;2022-10-31T10:02:56;17.25;;;10.93;;
74162;SDS011;62515;52.758;5.076;2022-10-31T10:05:30;14.93;;;10.45;;
74162;SDS011;62515;52.758;5.076;2022-10-31T10:08:07;14.10;;;10.48;;
74162;SDS011;62515;52.758;5.076;2022-10-31T10:11:05;19.48;;;10.48;;
74162;SDS011;62515;52.758;5.076;2022-10-31T10:14:01;15.23;;;8.77;;
74162;SDS011;62515;52.758;5.076;2022-10-31T10:16:42;15.00;;;9.85;;
74162;SDS011;62515;52.758;5.076;2022-10-31T10:19:25;15.25;;;9.20;;
74162;SDS011;62515;52.758;5.076;2022-10-31T10:22:09;18.70;;;9.57;;
74162;SDS011;62515;52.758;5.076;2022-10-31T10:24:47;14.10;;;9.70;;
74162;SDS011;62515;52.758;5.076;2022-10-31T10:27:23;13.60;;;8.38;;
74162;SDS011;62515;52.758;5.076;2022-10-31T10:30:01;12.35;;;8.75;;
74162;SDS011;62515;52.758;5.076;2022-10-31T10:32:35;16.25;;;9.52;;
74162;SDS011;62515;52.758;5.076;2022-10-31T10:35:16;12.82;;;7.82;;
74162;SDS011;62515;52.758;5.076;2022-10-31T10:37:50;14.35;;;8.10;;
74162;SDS011;62515;52.758;5.076;2022-10-31T10:40:23;10.15;;;6.60;;
74162;SDS011;62515;52.758;5.076;2022-10-31T10:42:55;8.57;;;7.22;;
74162;SDS011;62515;52.758;5.076;2022-10-31T10:45:49;12.60;;;7.68;;
74162;SDS011;62515;52.758;5.076;2022-10-31T10:48:42;10.77;;;7.20;;
74162;SDS011;62515;52.758;5.076;2022-10-31T10:51:15;9.85;;;6.72;;
74162;SDS011;62515;52.758;5.076;2022-10-31T10:54:13;10.73;;;6.80;;
74162;SDS011;62515;52.758;5.076;2022-10-31T10:56:55;9.05;;;7.38;;
74162;SDS011;62515;52.758;5.076;2022-10-31T10:59:30;13.02;;;7.97;;
74162;SDS011;62515;52.758;5.076;2022-10-31T11:01:58;12.18;;;8.48;;
74162;SDS011;62515;52.758;5.076;2022-10-31T11:04:30;12.57;;;8.45;;
74162;SDS011;62515;52.758;5.076;2022-10-31T11:06:59;15.40;;;9.93;;
74162;SDS011;62515;52.758;5.076;2022-10-31T11:09:29;13.55;;;10.80;;
74162;SDS011;62515;52.758;5.076;2022-10-31T11:11:56;15.25;;;12.02;;
74162;SDS011;62515;52.758;5.076;2022-10-31T11:14:24;14.38;;;10.00;;
74162;SDS011;62515;52.758;5.076;2022-10-31T11:16:54;15.43;;;9.85;;
74162;SDS011;62515;52.758;5.076;2022-10-31T11:19:32;17.77;;;10.07;;
74162;SDS011;62515;52.758;5.076;2022-10-31T11:22:05;16.25;;;10.38;;
74162;SDS011;62515;52.758;5.076;2022-10-31T11:24:37;13.63;;;9.38;;
74162;SDS011;62515;52.758;5.076;2022-10-31T11:27:13;11.85;;;8.68;;
74162;SDS011;62515;52.758;5.076;2022-10-31T11:29:41;14.07;;;8.90;;
74162;SDS011;62515;52.758;5.076;2022-10-31T11:32:18;11.68;;;8.57;;
74162;SDS011;62515;52.758;5.076;2022-10-31T11:34:47;12.10;;;8.80;;
74162;SDS011;62515;52.758;5.076;2022-10-31T11:37:17;11.32;;;8.25;;
74162;SDS011;62515;52.758;5.076;2022-10-31T11:39:49;14.38;;;8.00;;
74162;SDS011;62515;52.758;5.076;2022-10-31T11:42:20;10.20;;;7.97;;
74162;SDS011;62515;52.758;5.076;2022-10-31T11:44:49;11.90;;;7.78;;
74162;SDS011;62515;52.758;5.076;2022-10-31T11:47:20;10.20;;;7.80;;
74162;SDS011;62515;52.758;5.076;2022-10-31T11:49:51;10.05;;;7.13;;
74162;SDS011;62515;52.758;5.076;2022-10-31T11:52:19;9.15;;;6.25;;
74162;SDS011;62515;52.758;5.076;2022-10-31T11:54:51;9.88;;;6.57;;
74162;SDS011;62515;52.758;5.076;2022-10-31T11:57:22;12.77;;;8.07;;
74162;SDS011;62515;52.758;5.076;2022-10-31T12:02:19;8.80;;;7.05;;
74162;SDS011;62515;52.758;5.076;2022-10-31T12:04:49;10.00;;;6.38;;
74162;SDS011;62515;52.758;5.076;2022-10-31T12:07:21;7.32;;;5.55;;
74162;SDS011;62515;52.758;5.076;2022-10-31T12:09:48;8.00;;;6.60;;
74162;SDS011;62515;52.758;5.076;2022-10-31T12:18:06;9.02;;;6.97;;
74162;SDS011;62515;52.758;5.076;2022-10-31T12:20:45;9.48;;;6.78;;
74162;SDS011;62515;52.758;5.076;2022-10-31T12:23:23;10.88;;;6.07;;
74162;SDS011;62515;52.758;5.076;2022-10-31T12:26:01;9.65;;;6.88;;
74162;SDS011;62515;52.758;5.076;2022-10-31T12:28:47;9.52;;;7.40;;
74162;SDS011;62515;52.758;5.076;2022-10-31T12:31:29;14.50;;;13.10;;
74162;SDS011;62515;52.758;5.076;2022-10-31T12:34:12;10.60;;;7.20;;
74162;SDS011;62515;52.758;5.076;2022-10-31T12:37:00;10.13;;;6.75;;
74162;SDS011;62515;52.758;5.076;2022-10-31T12:39:38;9.38;;;7.45;;
74162;SDS011;62515;52.758;5.076;2022-10-31T12:42:17;11.27;;;7.63;;
74162;SDS011;62515;52.758;5.076;2022-10-31T12:48:12;12.88;;;6.53;;
74162;SDS011;62515;52.758;5.076;2022-10-31T12:50:50;9.38;;;6.55;;
74162;SDS011;62515;52.758;5.076;2022-10-31T12:53:34;8.43;;;6.82;;
74162;SDS011;62515;52.758;5.076;2022-10-31T12:56:12;10.02;;;7.10;;
74162;SDS011;62515;52.758;5.076;2022-10-31T12:58:52;9.38;;;7.07;;
74162;SDS011;62515;52.758;5.076;2022-10-31T13:01:23;11.57;;;6.45;;
74162;SDS011;62515;52.758;5.076;2022-10-31T13:03:55;11.38;;;7.50;;
74162;SDS011;62515;52.758;5.076;2022-10-31T13:06:27;10.35;;;7.22;;
74162;SDS011;62515;52.758;5.076;2022-10-31T13:08:59;11.70;;;9.10;;
74162;SDS011;62515;52.758;5.076;2022-10-31T13:11:29;10.27;;;6.25;;
74162;SDS011;62515;52.758;5.076;2022-10-31T13:14:05;10.05;;;7.22;;
74162;SDS011;62515;52.758;5.076;2022-10-31T13:16:36;16.92;;;10.90;;
74162;SDS011;62515;52.758;5.076;2022-10-31T13:19:08;9.88;;;6.70;;
74162;SDS011;62515;52.758;5.076;2022-10-31T13:21:41;11.38;;;6.80;;
74162;SDS011;62515;52.758;5.076;2022-10-31T13:24:16;10.85;;;6.50;;
74162;SDS011;62515;52.758;5.076;2022-10-31T13:26:47;11.63;;;10.23;;
74162;SDS011;62515;52.758;5.076;2022-10-31T13:29:20;9.80;;;6.95;;
74162;SDS011;62515;52.758;5.076;2022-10-31T13:31:58;11.82;;;7.90;;
74162;SDS011;62515;52.758;5.076;2022-10-31T13:34:28;10.88;;;7.75;;
74162;SDS011;62515;52.758;5.076;2022-10-31T13:37:01;11.48;;;7.18;;
74162;SDS011;62515;52.758;5.076;2022-10-31T13:39:38;11.52;;;8.23;;
74162;SDS011;62515;52.758;5.076;2022-10-31T13:42:14;8.98;;;7.50;;
74162;SDS011;62515;52.758;5.076;2022-10-31T13:44:48;9.15;;;8.25;;
74162;SDS011;62515;52.758;5.076;2022-10-31T13:47:23;12.40;;;7.38;;
74162;SDS011;62515;52.758;5.076;2022-10-31T13:50:02;12.38;;;7.97;;
74162;SDS011;62515;52.758;5.076;2022-10-31T13:52:40;27.00;;;25.00;;
74162;SDS011;62515;52.758;5.076;2022-10-31T13:58:05;11.95;;;9.57;;
74162;SDS011;62515;52.758;5.076;2022-10-31T14:00:47;14.07;;;9.10;;
74162;SDS011;62515;52.758;5.076;2022-10-31T14:03:25;13.13;;;8.02;;
74162;SDS011;62515;52.758;5.076;2022-10-31T14:06:14;39.30;;;36.38;;
74162;SDS011;62515;52.758;5.076;2022-10-31T14:08:46;19.90;;;12.45;;
74162;SDS011;62515;52.758;5.076;2022-10-31T14:11:19;19.73;;;10.82;;
74162;SDS011;62515;52.758;5.076;2022-10-31T14:13:51;17.55;;;10.10;;
74162;SDS011;62515;52.758;5.076;2022-10-31T14:16:20;15.93;;;8.90;;
74162;SDS011;62515;52.758;5.076;2022-10-31T14:18:51;17.20;;;10.15;;
74162;SDS011;62515;52.758;5.076;2022-10-31T14:21:26;19.65;;;9.48;;
74162;SDS011;62515;52.758;5.076;2022-10-31T14:23:55;15.73;;;10.38;;
74162;SDS011;62515;52.758;5.076;2022-10-31T14:26:31;15.38;;;8.90;;
74162;SDS011;62515;52.758;5.076;2022-10-31T14:31:52;16.08;;;9.52;;
74162;SDS011;62515;52.758;5.076;2022-10-31T14:34:22;18.20;;;10.40;;
74162;SDS011;62515;52.758;5.076;2022-10-31T14:36:55;17.02;;;10.82;;
74162;SDS011;62515;52.758;5.076;2022-10-31T14:39:29;20.42;;;11.63;;
74162;SDS011;62515;52.758;5.076;2022-10-31T14:42:05;20.73;;;10.15;;
74162;SDS011;62515;52.758;5.076;2022-10-31T14:44:49;18.65;;;10.52;;
74162;SDS011;62515;52.758;5.076;2022-10-31T14:47:31;19.90;;;10.50;;
74162;SDS011;62515;52.758;5.076;2022-10-31T14:50:13;20.60;;;11.82;;
74162;SDS011;62515;52.758;5.076;2022-10-31T14:52:49;19.95;;;11.38;;
74162;SDS011;62515;52.758;5.076;2022-10-31T14:55:18;18.95;;;10.15;;
74162;SDS011;62515;52.758;5.076;2022-10-31T14:57:48;20.83;;;11.30;;
74162;SDS011;62515;52.758;5.076;2022-10-31T15:00:18;22.60;;;10.45;;
74162;SDS011;62515;52.758;5.076;2022-10-31T15:02:51;23.48;;;11.55;;
74162;SDS011;62515;52.758;5.076;2022-10-31T15:05:28;19.92;;;11.35;;
74162;SDS011;62515;52.758;5.076;2022-10-31T15:07:58;21.08;;;11.70;;
74162;SDS011;62515;52.758;5.076;2022-10-31T15:10:26;22.38;;;10.68;;
74162;SDS011;62515;52.758;5.076;2022-10-31T15:12:56;17.63;;;10.95;;
74162;SDS011;62515;52.758;5.076;2022-10-31T15:15:35;19.02;;;10.50;;
74162;SDS011;62515;52.758;5.076;2022-10-31T15:18:04;14.80;;;10.30;;
74162;SDS011;62515;52.758;5.076;2022-10-31T15:20:35;19.05;;;11.48;;
74162;SDS011;62515;52.758;5.076;2022-10-31T15:23:05;14.68;;;10.52;;
74162;SDS011;62515;52.758;5.076;2022-10-31T15:25:36;22.25;;;10.68;;
74162;SDS011;62515;52.758;5.076;2022-10-31T15:28:12;17.95;;;10.38;;
74162;SDS011;62515;52.758;5.076;2022-10-31T15:30:39;18.40;;;11.80;;
74162;SDS011;62515;52.758;5.076;2022-10-31T15:33:17;16.73;;;10.82;;
74162;SDS011;62515;52.758;5.076;2022-10-31T15:35:53;18.15;;;11.27;;
74162;SDS011;62515;52.758;5.076;2022-10-31T15:38:23;17.45;;;11.27;;
74162;SDS011;62515;52.758;5.076;2022-10-31T15:40:51;18.40;;;11.18;;
74162;SDS011;62515;52.758;5.076;2022-10-31T15:43:21;15.57;;;10.57;;
74162;SDS011;62515;52.758;5.076;2022-10-31T15:45:48;17.70;;;12.05;;